Time;durP1;ratioP1;P1;durP2;ratioP2;P2;SDS_P1;SDS_P2;PMS_P1;PMS_P2;Temp;Humidity;BMP_temperature;BMP_pressure;BME280_temperature;BME280_humidity;BME280_pressure;Samples;Min_cycle;Max_cycle;Signal;HPM_P1;HPM_P2
2021/09/27 00:00:10;;;;;;;7.95;6.25;;;;;;;16.22;100.00;99541.09;5074185;28;20279;-74
2021/09/27 00:02:36;;;;;;;7.35;6.30;;;;;;;16.23;100.00;99532.78;5073983;28;20197;-74
2021/09/27 00:05:04;;;;;;;7.22;6.53;;;;;;;16.31;100.00;99525.88;5074214;28;20677;-74
2021/09/27 00:07:31;;;;;;;6.32;5.72;;;;;;;16.27;100.00;99530.69;5074040;28;20228;-74
2021/09/27 00:09:57;;;;;;;9.23;6.50;;;;;;;16.21;100.00;99528.47;5074718;28;20676;-74
2021/09/27 00:12:24;;;;;;;6.75;6.05;;;;;;;16.19;100.00;99538.59;5074081;28;20530;-74
2021/09/27 00:14:51;;;;;;;6.45;5.80;;;;;;;16.33;100.00;99532.91;5074306;28;20201;-74
2021/09/27 00:17:19;;;;;;;6.43;5.63;;;;;;;16.34;100.00;99525.63;5074356;28;20652;-74
2021/09/27 00:19:45;;;;;;;7.30;5.57;;;;;;;16.31;100.00;99521.31;5074013;28;20191;-75
2021/09/27 00:22:12;;;;;;;7.47;5.60;;;;;;;16.24;100.00;99533.69;5074145;28;20238;-74
2021/09/27 00:24:39;;;;;;;6.85;5.68;;;;;;;16.14;100.00;99529.97;5074072;28;20699;-74
2021/09/27 00:27:06;;;;;;;6.03;5.43;;;;;;;16.12;100.00;99529.25;5073774;28;20620;-74
2021/09/27 00:29:33;;;;;;;10.00;5.72;;;;;;;16.12;100.00;99521.94;5073876;28;20565;-73
2021/09/27 00:31:59;;;;;;;8.25;6.35;;;;;;;16.15;100.00;99520.88;5073729;28;20663;-75
2021/09/27 00:34:28;;;;;;;8.13;6.95;;;;;;;15.87;100.00;99520.38;5073099;28;20188;-74
2021/09/27 00:36:54;;;;;;;8.20;6.43;;;;;;;15.59;100.00;99521.72;5073412;28;20231;-74
2021/09/27 00:39:21;;;;;;;13.43;8.07;;;;;;;15.32;100.00;99517.50;5073333;28;20189;-73
2021/09/27 00:41:47;;;;;;;9.90;7.75;;;;;;;15.28;100.00;99516.03;5073718;28;20226;-73
2021/09/27 00:44:15;;;;;;;10.55;8.00;;;;;;;15.22;100.00;99511.97;5073737;28;20275;-73
2021/09/27 00:46:42;;;;;;;13.90;9.20;;;;;;;15.17;100.00;99519.59;5073978;28;20189;-74
2021/09/27 00:49:09;;;;;;;13.40;10.20;;;;;;;15.16;100.00;99517.84;5073156;28;20196;-74
2021/09/27 00:51:40;;;;;;;15.20;11.43;;;;;;;15.13;100.00;99512.69;5073597;28;20192;-74
2021/09/27 00:54:11;;;;;;;12.05;9.73;;;;;;;15.08;100.00;99514.91;5073412;28;20192;-74
2021/09/27 00:56:43;;;;;;;15.82;12.13;;;;;;;15.16;100.00;99511.56;5073526;28;20203;-73
2021/09/27 00:59:11;;;;;;;18.92;12.98;;;;;;;15.26;100.00;99509.00;5073833;28;20620;-73
2021/09/27 01:01:38;;;;;;;15.05;12.52;;;;;;;15.20;100.00;99502.22;5072737;28;20209;-73
2021/09/27 01:04:06;;;;;;;16.25;12.15;;;;;;;15.12;100.00;99502.81;5073316;28;20199;-74
2021/09/27 01:07:06;;;;;;;13.55;11.70;;;;;;;14.97;100.00;99501.31;5072841;28;20203;-73
2021/09/27 01:09:42;;;;;;;14.90;11.95;;;;;;;14.94;100.00;99502.41;5073082;28;20207;-74
2021/09/27 01:12:28;;;;;;;12.68;11.18;;;;;;;14.90;100.00;99508.19;5073153;28;20195;-73
2021/09/27 01:15:09;;;;;;;12.80;11.50;;;;;;;14.86;100.00;99509.41;5065110;28;20272;-74
2021/09/27 01:17:46;;;;;;;16.30;9.95;;;;;;;14.82;100.00;99503.38;5072665;28;20631;-74
2021/09/27 01:20:58;;;;;;;15.23;11.23;;;;;;;14.80;100.00;99516.16;5067177;28;20281;-73
2021/09/27 01:23:55;;;;;;;13.38;10.75;;;;;;;14.83;100.00;99509.63;5067309;28;20192;-74
2021/09/27 01:26:52;;;;;;;11.48;9.63;;;;;;;14.95;100.00;99520.41;5066703;28;20184;-73
2021/09/27 01:29:48;;;;;;;10.25;9.13;;;;;;;14.87;100.00;99517.41;5072877;28;20279;-74
2021/09/27 01:32:27;;;;;;;13.07;9.68;;;;;;;14.81;100.00;99507.03;5064657;28;20187;-74
2021/09/27 01:35:06;;;;;;;11.55;10.32;;;;;;;14.76;100.00;99512.81;5072540;28;20227;-74
2021/09/27 01:37:40;;;;;;;13.07;9.73;;;;;;;14.80;100.00;99508.03;5066295;28;20222;-74
2021/09/27 01:40:15;;;;;;;11.13;9.88;;;;;;;14.85;100.00;99516.66;5072320;28;20194;-74
2021/09/27 01:42:48;;;;;;;13.05;11.10;;;;;;;14.83;100.00;99512.34;5072734;28;20208;-74
2021/09/27 01:45:22;;;;;;;13.52;10.52;;;;;;;14.93;100.00;99514.22;5072346;28;20195;-74
2021/09/27 01:48:03;;;;;;;12.75;9.70;;;;;;;14.93;100.00;99510.66;5072724;28;20529;-74
2021/09/27 01:50:34;;;;;;;14.15;10.30;;;;;;;14.85;100.00;99505.81;5064285;28;20543;-74
2021/09/27 01:53:06;;;;;;;12.70;10.32;;;;;;;14.82;100.00;99510.63;5072529;28;20189;-74
2021/09/27 01:55:37;;;;;;;10.07;8.77;;;;;;;14.77;100.00;99505.56;5072070;28;20188;-74
2021/09/27 01:58:07;;;;;;;10.85;9.68;;;;;;;14.69;100.00;99505.28;5072328;28;20196;-74
2021/09/27 02:00:40;;;;;;;11.48;10.30;;;;;;;14.77;100.00;99500.16;5072250;28;20196;-73
2021/09/27 02:03:19;;;;;;;10.55;9.20;;;;;;;14.70;100.00;99497.03;5072523;28;20211;-74
2021/09/27 02:05:55;;;;;;;13.10;9.70;;;;;;;14.66;100.00;99494.69;5069408;28;20184;-74
2021/09/27 02:08:29;;;;;;;9.38;8.23;;;;;;;14.58;100.00;99501.56;5072137;28;20226;-74
2021/09/27 02:11:03;;;;;;;11.00;9.80;;;;;;;14.49;100.00;99493.22;5072243;28;20193;-73
2021/09/27 02:13:32;;;;;;;14.98;10.68;;;;;;;14.44;100.00;99493.56;5072231;28;20273;-73
2021/09/27 02:16:04;;;;;;;13.38;10.60;;;;;;;14.47;100.00;99495.19;5064494;28;20191;-73
2021/09/27 02:18:39;;;;;;;11.82;10.25;;;;;;;14.33;100.00;99488.97;5071888;28;20189;-73
2021/09/27 02:21:13;;;;;;;12.07;9.68;;;;;;;14.28;100.00;99496.56;5064550;28;20275;-74
2021/09/27 02:23:46;;;;;;;11.77;10.50;;;;;;;14.24;100.00;99489.66;5071909;28;20210;-72
2021/09/27 02:26:13;;;;;;;14.93;10.65;;;;;;;14.25;100.00;99490.53;5071997;28;20258;-74
2021/09/27 02:28:40;;;;;;;12.43;11.13;;;;;;;14.27;100.00;99486.72;5072188;28;20280;-75
2021/09/27 02:31:14;;;;;;;12.43;9.95;;;;;;;14.45;100.00;99479.06;5072065;28;20558;-73
2021/09/27 02:33:51;;;;;;;12.20;9.35;;;;;;;14.63;100.00;99484.94;5071779;28;20279;-73
2021/09/27 02:36:24;;;;;;;11.40;9.10;;;;;;;14.80;100.00;99483.63;5071451;28;20216;-73
2021/09/27 02:38:59;;;;;;;10.05;8.18;;;;;;;14.89;100.00;99479.34;5072042;28;20195;-73
2021/09/27 02:41:32;;;;;;;10.45;7.75;;;;;;;15.00;100.00;99480.25;5072170;28;20219;-73
2021/09/27 02:43:59;;;;;;;10.65;8.15;;;;;;;15.00;100.00;99485.66;5072010;28;20216;-73
2021/09/27 02:46:29;;;;;;;9.23;7.63;;;;;;;15.19;100.00;99481.50;5072086;28;20199;-74
2021/09/27 02:49:09;;;;;;;11.18;8.32;;;;;;;15.23;100.00;99481.13;5071561;28;20189;-74
2021/09/27 02:51:36;;;;;;;10.90;7.80;;;;;;;15.12;100.00;99486.53;5065492;28;20176;-74
2021/09/27 02:54:02;;;;;;;11.15;7.97;;;;;;;15.14;100.00;99478.28;5071422;28;20193;-73
2021/09/27 02:56:54;;;;;;;10.15;8.02;;;;;;;15.08;100.00;99481.47;5064763;28;20279;-74
2021/09/27 02:59:35;;;;;;;11.20;8.25;;;;;;;15.07;100.00;99468.91;5075418;28;20272;-74
2021/09/27 03:02:13;;;;;;;11.48;9.13;;;;;;;15.00;100.00;99463.13;5075680;28;20220;-73
2021/09/27 03:04:54;;;;;;;12.13;8.95;;;;;;;15.05;100.00;99465.47;5076055;28;20185;-74
2021/09/27 03:07:34;;;;;;;11.88;8.65;;;;;;;14.91;100.00;99464.69;5075441;28;20184;-74
2021/09/27 03:10:14;;;;;;;11.57;9.25;;;;;;;14.94;100.00;99466.28;5075455;28;20185;-74
2021/09/27 03:12:49;;;;;;;10.65;8.80;;;;;;;14.91;100.00;99464.69;5068420;28;20180;-74
2021/09/27 03:15:52;;;;;;;15.18;10.50;;;;;;;14.95;100.00;99470.75;5075525;28;20204;-74
2021/09/27 03:18:33;;;;;;;11.82;10.57;;;;;;;15.05;100.00;99465.47;5068098;28;20192;-74
2021/09/27 03:21:13;;;;;;;12.70;10.85;;;;;;;14.99;100.00;99472.22;5075578;28;20185;-74
2021/09/27 03:23:51;;;;;;;16.13;12.65;;;;;;;14.95;100.00;99468.03;5074899;28;20287;-73
2021/09/27 03:26:31;;;;;;;14.00;11.77;;;;;;;14.94;100.00;99467.16;5075339;28;20637;-74
2021/09/27 03:29:07;;;;;;;13.50;10.40;;;;;;;15.00;100.00;99466.69;5075025;28;20184;-74
2021/09/27 03:31:41;;;;;;;18.40;11.93;;;;;;;15.07;100.00;99469.78;5074742;28;20189;-73
2021/09/27 03:34:14;;;;;;;15.38;12.48;;;;;;;15.00;100.00;99468.53;5074864;28;20196;-73
2021/09/27 03:37:19;;;;;;;17.30;12.75;;;;;;;15.06;100.00;99468.06;5074767;28;20728;-73
2021/09/27 03:40:02;;;;;;;21.67;14.18;;;;;;;15.14;100.00;99464.72;5075110;28;20194;-73
2021/09/27 03:42:37;;;;;;;20.83;14.05;;;;;;;15.16;100.00;99468.19;5074739;28;20215;-73
2021/09/27 03:45:11;;;;;;;17.77;14.18;;;;;;;15.19;100.00;99462.50;5075128;28;20192;-72
2021/09/27 03:47:44;;;;;;;20.60;14.70;;;;;;;15.27;100.00;99473.63;5074646;28;20184;-73
2021/09/27 03:50:19;;;;;;;15.93;13.60;;;;;;;15.41;100.00;99470.66;5074979;28;20900;-72
2021/09/27 03:52:51;;;;;;;17.35;13.38;;;;;;;15.48;100.00;99479.16;5074444;28;20199;-72
2021/09/27 03:55:22;;;;;;;20.55;14.93;;;;;;;15.51;100.00;99472.63;5074286;28;20189;-73
2021/09/27 03:57:55;;;;;;;18.70;13.23;;;;;;;15.58;100.00;99472.03;5074278;28;20201;-73
2021/09/27 04:00:30;;;;;;;22.80;14.02;;;;;;;15.49;100.00;99480.03;5074276;28;20188;-74
2021/09/27 04:03:03;;;;;;;17.85;13.25;;;;;;;15.49;100.00;99471.88;5074243;28;20200;-73
2021/09/27 04:05:41;;;;;;;18.15;14.80;;;;;;;15.29;100.00;99468.09;5074094;28;20189;-73
2021/09/27 04:08:18;;;;;;;17.50;14.55;;;;;;;15.33;100.00;99475.84;5067492;28;20297;-73
2021/09/27 04:10:59;;;;;;;20.45;14.75;;;;;;;15.30;100.00;99470.66;5074052;28;20194;-73
2021/09/27 04:13:33;;;;;;;17.98;14.88;;;;;;;15.26;100.00;99471.03;5074354;28;20605;-73
2021/09/27 04:16:17;;;;;;;16.50;13.68;;;;;;;15.22;100.00;99471.28;5074134;28;20191;-73
2021/09/27 04:18:52;;;;;;;26.00;14.63;;;;;;;15.29;100.00;99459.94;5074031;28;20550;-73
2021/09/27 04:21:25;;;;;;;17.83;13.65;;;;;;;15.29;100.00;99468.94;5074640;28;20800;-74
2021/09/27 04:24:09;;;;;;;19.02;15.40;;;;;;;15.30;100.00;99458.94;5074142;28;20563;-73
2021/09/27 04:26:54;;;;;;;19.45;14.75;;;;;;;15.33;100.00;99466.81;5073807;28;20185;-73
2021/09/27 04:29:43;;;;;;;20.02;15.02;;;;;;;15.37;100.00;99450.19;5067345;28;20199;-73
2021/09/27 04:32:23;;;;;;;18.75;15.43;;;;;;;15.45;100.00;99457.72;5064638;28;20189;-74
2021/09/27 04:35:09;;;;;;;27.40;18.27;;;;;;;15.39;100.00;99453.63;5072589;28;20219;-74
2021/09/27 04:37:37;;;;;;;18.58;15.45;;;;;;;15.37;100.00;99452.03;5073204;28;20710;-74
2021/09/27 04:40:10;;;;;;;17.85;14.30;;;;;;;15.41;100.00;99456.25;5071677;28;20284;-74
2021/09/27 04:43:04;;;;;;;20.10;15.70;;;;;;;15.38;100.00;99453.78;5072872;28;20674;-72
2021/09/27 04:45:46;;;;;;;20.67;15.10;;;;;;;15.32;100.00;99456.97;5072376;28;20758;-73
2021/09/27 04:48:27;;;;;;;19.52;15.73;;;;;;;15.31;100.00;99458.84;5072686;28;20630;-74
2021/09/27 04:51:14;;;;;;;21.33;15.55;;;;;;;15.31;100.00;99455.22;5073628;28;20196;-73
2021/09/27 04:54:06;;;;;;;19.63;15.73;;;;;;;15.33;100.00;99455.97;5068473;28;20187;-73
2021/09/27 04:56:42;;;;;;;19.00;15.35;;;;;;;15.30;100.00;99456.22;5068021;28;20660;-73
2021/09/27 04:59:23;;;;;;;17.88;15.93;;;;;;;15.27;100.00;99451.06;5073457;28;20184;-72
2021/09/27 05:02:15;;;;;;;16.35;14.45;;;;;;;15.31;100.00;99450.69;5073656;28;20181;-72
2021/09/27 05:04:49;;;;;;;19.77;16.15;;;;;;;15.18;100.00;99450.81;5066429;28;20195;-74
2021/09/27 05:07:52;;;;;;;20.42;15.15;;;;;;;15.13;100.00;99442.19;5073525;28;20192;-73
2021/09/27 05:10:51;;;;;;;22.80;16.80;;;;;;;15.16;100.00;99447.34;5073796;28;20642;-74
2021/09/27 05:13:37;;;;;;;21.05;16.08;;;;;;;15.15;100.00;99444.75;5069393;28;20208;-73
2021/09/27 05:16:17;;;;;;;20.33;15.43;;;;;;;15.11;100.00;99443.28;5073499;28;20276;-73
2021/09/27 05:19:23;;;;;;;20.00;15.55;;;;;;;15.13;100.00;99453.03;5066189;28;20319;-74
2021/09/27 05:22:34;;;;;;;21.08;15.85;;;;;;;15.13;100.00;99447.59;5067006;28;20193;-74
2021/09/27 05:25:16;;;;;;;18.70;15.10;;;;;;;15.23;100.00;99447.72;5042856;28;20199;-75
2021/09/27 05:28:08;;;;;;;26.98;18.67;;;;;;;14.97;100.00;99452.53;5065198;28;20193;-73
2021/09/27 05:30:52;;;;;;;23.05;18.85;;;;;;;14.77;100.00;99457.63;5072543;28;20215;-73
2021/09/27 05:33:30;;;;;;;21.50;17.50;;;;;;;14.84;100.00;99463.44;5072886;28;20660;-73
2021/09/27 05:36:14;;;;;;;21.85;18.80;;;;;;;14.83;100.00;99464.41;5073210;28;20590;-73
2021/09/27 05:38:52;;;;;;;22.27;18.25;;;;;;;14.93;100.00;99461.88;5072659;28;20192;-72
2021/09/27 05:41:31;;;;;;;22.33;19.13;;;;;;;14.95;100.00;99470.75;5072962;28;20184;-73
2021/09/27 05:44:13;;;;;;;23.17;17.50;;;;;;;15.17;100.00;99469.91;5073022;28;20204;-73
2021/09/27 05:46:57;;;;;;;23.08;17.88;;;;;;;15.32;100.00;99473.25;5072770;28;20189;-74
2021/09/27 05:49:27;;;;;;;24.05;18.42;;;;;;;15.44;100.00;99466.84;5072694;28;20280;-74
2021/09/27 05:52:01;;;;;;;30.60;21.25;;;;;;;15.63;100.00;99467.09;5073004;28;20549;-75
2021/09/27 05:54:36;;;;;;;22.73;17.50;;;;;;;15.73;100.00;99461.78;5072506;28;20203;-74
2021/09/27 05:57:09;;;;;;;18.67;13.95;;;;;;;15.83;100.00;99461.91;5072449;28;20200;-72
2021/09/27 05:59:45;;;;;;;32.50;23.65;;;;;;;15.89;100.00;99464.13;5072627;28;20203;-73
2021/09/27 06:02:27;;;;;;;18.50;14.43;;;;;;;15.92;100.00;99455.72;5072671;28;20272;-73
2021/09/27 06:05:07;;;;;;;20.38;14.32;;;;;;;16.00;100.00;99453.22;5073314;28;20667;-74
2021/09/27 06:07:42;;;;;;;19.83;14.35;;;;;;;16.04;100.00;99457.41;5072097;28;20177;-74
2021/09/27 06:10:16;;;;;;;19.75;15.48;;;;;;;16.04;100.00;99451.97;5071497;28;20194;-75
2021/09/27 06:12:50;;;;;;;19.33;14.02;;;;;;;15.97;100.00;99452.63;5071907;28;20187;-73
2021/09/27 06:15:18;;;;;;;25.30;16.00;;;;;;;16.00;100.00;99449.66;5072382;28;20196;-73
2021/09/27 06:18:11;;;;;;;26.48;15.88;;;;;;;16.01;100.00;99443.25;5072491;28;20189;-73
2021/09/27 06:20:48;;;;;;;33.33;17.60;;;;;;;15.99;100.00;99456.94;5052605;28;20231;-73
2021/09/27 06:23:41;;;;;;;26.58;14.65;;;;;;;16.09;100.00;99462.47;5052506;28;20666;-73
2021/09/27 06:26:10;;;;;;;19.75;15.23;;;;;;;16.40;100.00;99460.75;5051915;28;20272;-74
2021/09/27 06:28:45;;;;;;;18.75;13.48;;;;;;;16.51;100.00;99454.44;5052324;28;20227;-73
2021/09/27 06:31:20;;;;;;;19.50;12.98;;;;;;;16.61;100.00;99459.94;5064590;28;20637;-73
2021/09/27 06:33:53;;;;;;;18.00;13.10;;;;;;;16.63;100.00;99453.34;5076819;28;20210;-74
2021/09/27 06:36:23;;;;;;;20.48;12.35;;;;;;;16.76;100.00;99457.75;5075938;28;20240;-74
2021/09/27 06:38:54;;;;;;;15.50;12.90;;;;;;;16.82;100.00;99469.00;5076801;28;20526;-74
2021/09/27 06:41:24;;;;;;;15.20;11.98;;;;;;;16.93;100.00;99464.47;5076420;28;20355;-74
2021/09/27 06:43:51;;;;;;;17.90;12.60;;;;;;;16.97;100.00;99474.09;5076317;28;20311;-75
2021/09/27 06:46:18;;;;;;;13.23;11.68;;;;;;;17.01;100.00;99473.69;5076240;28;20208;-75
2021/09/27 06:48:45;;;;;;;14.30;12.38;;;;;;;17.16;100.00;99474.19;5076481;28;20193;-74
2021/09/27 06:51:13;;;;;;;13.68;11.40;;;;;;;17.32;100.00;99478.31;5076027;28;20208;-74
2021/09/27 06:53:39;;;;;;;14.95;11.80;;;;;;;17.46;100.00;99475.25;5076262;28;20609;-75
2021/09/27 06:56:06;;;;;;;18.75;11.98;;;;;;;17.61;100.00;99465.69;5076299;28;20549;-74
2021/09/27 06:58:33;;;;;;;11.25;10.05;;;;;;;17.64;100.00;99470.03;5076502;28;20213;-75
2021/09/27 07:01:00;;;;;;;12.68;11.15;;;;;;;17.85;98.97;99470.81;5075606;28;20280;-74
2021/09/27 07:03:27;;;;;;;13.18;10.48;;;;;;;17.83;97.98;99472.81;5076224;28;20276;-75
2021/09/27 07:05:54;;;;;;;15.40;11.32;;;;;;;17.64;99.33;99464.56;5075854;28;20622;-74
2021/09/27 07:08:23;;;;;;;13.90;12.43;;;;;;;17.60;100.00;99461.25;5075855;28;20226;-75
2021/09/27 07:10:51;;;;;;;14.85;12.35;;;;;;;17.68;100.00;99463.28;5075440;28;20254;-74
2021/09/27 07:13:17;;;;;;;13.88;11.60;;;;;;;17.50;100.00;99465.78;5075642;28;20189;-75
2021/09/27 07:15:45;;;;;;;18.70;13.35;;;;;;;17.64;100.00;99468.16;5075605;28;20189;-75
2021/09/27 07:18:12;;;;;;;19.60;17.50;;;;;;;17.78;100.00;99452.44;5075893;28;20203;-74
2021/09/27 07:20:39;;;;;;;22.02;16.23;;;;;;;17.88;99.50;99458.78;5075695;28;20182;-74
2021/09/27 07:23:07;;;;;;;18.48;12.38;;;;;;;17.96;98.37;99464.41;5075120;28;20214;-75
2021/09/27 07:25:36;;;;;;;15.25;11.02;;;;;;;17.94;97.94;99458.25;5075572;28;20214;-75
2021/09/27 07:28:03;;;;;;;25.20;13.68;;;;;;;18.06;98.30;99451.66;5075314;28;20205;-74
2021/09/27 07:30:30;;;;;;;20.85;14.75;;;;;;;18.41;96.38;99450.28;5075194;28;20204;-73
2021/09/27 07:32:58;;;;;;;19.70;13.63;;;;;;;18.52;93.79;99446.56;5075223;28;20347;-74
2021/09/27 07:35:28;;;;;;;13.82;11.60;;;;;;;18.66;93.07;99447.97;5074729;28;20544;-73
2021/09/27 07:37:55;;;;;;;13.88;11.93;;;;;;;18.74;91.48;99453.56;5075001;28;20233;-73
2021/09/27 07:40:25;;;;;;;13.40;11.50;;;;;;;18.87;90.87;99447.84;5074903;28;20191;-73
2021/09/27 07:42:53;;;;;;;18.23;12.18;;;;;;;18.57;91.68;99452.44;5074291;28;20201;-72
2021/09/27 07:45:23;;;;;;;14.95;12.38;;;;;;;18.39;93.84;99457.75;5074848;28;20184;-73
2021/09/27 07:47:50;;;;;;;21.70;14.13;;;;;;;18.19;95.36;99458.72;5074977;28;20274;-73
2021/09/27 07:50:17;;;;;;;15.18;11.60;;;;;;;18.03;96.88;99460.13;5074704;28;20215;-74
2021/09/27 07:52:44;;;;;;;15.60;11.70;;;;;;;18.33;97.19;99466.47;5075285;28;20526;-74
2021/09/27 07:55:13;;;;;;;16.65;12.98;;;;;;;18.42;95.83;99467.50;5074651;28;20195;-74
2021/09/27 07:57:40;;;;;;;13.23;11.57;;;;;;;18.47;95.80;99459.75;5075075;28;20202;-74
2021/09/27 08:00:10;;;;;;;13.07;11.75;;;;;;;18.78;94.08;99463.22;5074595;28;20188;-74
2021/09/27 08:02:37;;;;;;;15.88;11.75;;;;;;;18.86;91.02;99465.19;5075062;28;20633;-74
2021/09/27 08:05:04;;;;;;;12.90;10.88;;;;;;;19.06;90.03;99460.56;5074477;28;20226;-75
2021/09/27 08:07:31;;;;;;;15.63;11.93;;;;;;;19.08;89.82;99464.88;5074674;28;20184;-74
2021/09/27 08:09:57;;;;;;;11.50;9.73;;;;;;;19.19;89.36;99471.19;5074898;28;20697;-75
2021/09/27 08:12:24;;;;;;;10.60;9.50;;;;;;;19.53;86.92;99468.78;5074357;28;20286;-74
2021/09/27 08:14:51;;;;;;;13.70;9.93;;;;;;;19.82;85.01;99474.13;5074408;28;20181;-74
2021/09/27 08:17:19;;;;;;;11.07;9.80;;;;;;;20.11;83.44;99462.19;5074188;28;20500;-74
2021/09/27 08:19:46;;;;;;;12.60;9.60;;;;;;;20.12;82.79;99458.44;5074568;28;20211;-73
2021/09/27 08:22:14;;;;;;;12.43;9.10;;;;;;;20.04;83.05;99464.69;5074194;28;20434;-74
2021/09/27 08:24:41;;;;;;;11.30;9.50;;;;;;;19.68;85.16;99460.97;5074561;28;20944;-74
2021/09/27 08:27:08;;;;;;;10.40;8.40;;;;;;;19.85;85.23;99468.34;5074164;28;20482;-73
2021/09/27 08:29:35;;;;;;;9.97;8.30;;;;;;;20.09;82.84;99459.59;5073826;28;20522;-74
2021/09/27 08:32:01;;;;;;;11.10;9.90;;;;;;;20.37;81.29;99465.03;5074153;28;20889;-74
2021/09/27 08:34:29;;;;;;;9.57;8.20;;;;;;;20.42;80.68;99465.44;5074184;28;21008;-73
2021/09/27 08:36:58;;;;;;;10.40;7.97;;;;;;;20.38;80.73;99462.13;5073969;28;20556;-74
2021/09/27 08:39:25;;;;;;;10.97;8.50;;;;;;;20.33;81.13;99467.22;5073985;28;20500;-75
2021/09/27 08:41:55;;;;;;;9.80;7.40;;;;;;;20.04;82.96;99458.34;5073624;28;20474;-75
2021/09/27 08:44:41;;;;;;;8.77;7.73;;;;;;;20.15;83.12;99459.00;5073577;28;20462;-75
2021/09/27 08:47:14;;;;;;;11.03;7.13;;;;;;;20.83;79.02;99453.00;5074157;28;20780;-73
2021/09/27 08:49:49;;;;;;;8.23;6.97;;;;;;;21.01;76.87;99454.88;5073656;28;20947;-73
2021/09/27 08:52:17;;;;;;;11.07;8.20;;;;;;;21.11;76.47;99450.13;5073424;28;20537;-75
2021/09/27 08:54:46;;;;;;;9.83;6.67;;;;;;;21.41;74.90;99457.03;5072994;28;20425;-75
2021/09/27 08:57:27;;;;;;;10.10;6.77;;;;;;;21.51;74.67;99454.19;5071777;28;20557;-73
2021/09/27 09:00:00;;;;;;;8.90;7.00;;;;;;;21.64;74.51;99459.22;5072994;28;20522;-74
2021/09/27 09:02:45;;;;;;;8.90;6.03;;;;;;;21.93;72.32;99455.22;5073111;28;20455;-74
2021/09/27 09:05:19;;;;;;;11.33;9.23;;;;;;;21.82;73.26;99451.75;5072004;28;20493;-75
2021/09/27 09:07:51;;;;;;;6.90;6.20;;;;;;;21.85;72.71;99451.44;5072682;28;20865;-74
2021/09/27 09:10:31;;;;;;;7.43;5.70;;;;;;;22.07;71.90;99455.44;5073196;28;20485;-74
2021/09/27 09:13:02;;;;;;;6.87;6.17;;;;;;;22.11;71.31;99444.13;5073712;28;20790;-75
2021/09/27 09:15:30;;;;;;;8.00;5.63;;;;;;;22.36;70.14;99450.56;5074273;28;20601;-73
2021/09/27 09:18:03;;;;;;;5.90;5.33;;;;;;;22.31;69.38;99452.97;5073854;28;20443;-74
2021/09/27 09:20:48;;;;;;;6.47;5.40;;;;;;;22.05;70.85;99452.00;5073907;28;20433;-73
2021/09/27 09:23:22;;;;;;;6.60;5.00;;;;;;;22.11;71.00;99450.47;5073531;28;20450;-73
2021/09/27 09:25:49;;;;;;;7.10;5.83;;;;;;;22.14;71.15;99452.91;5073884;28;20442;-73
2021/09/27 09:28:17;;;;;;;6.10;4.90;;;;;;;22.01;71.50;99458.00;5073497;28;20530;-73
2021/09/27 09:30:54;;;;;;;5.70;5.03;;;;;;;21.68;72.09;99452.38;5073784;28;20427;-74
2021/09/27 09:33:38;;;;;;;6.20;4.80;;;;;;;21.15;74.16;99451.53;5074027;28;20510;-71
2021/09/27 09:36:09;;;;;;;7.70;5.53;;;;;;;21.30;73.94;99464.63;5073081;28;20474;-74
2021/09/27 09:38:38;;;;;;;5.97;4.67;;;;;;;21.51;72.52;99464.28;5072879;28;20533;-71
2021/09/27 09:41:06;;;;;;;6.10;5.50;;;;;;;21.56;72.74;99459.16;5072954;28;20541;-74
2021/09/27 09:43:37;;;;;;;6.10;5.03;;;;;;;21.17;72.69;99468.66;5072962;28;20415;-73
2021/09/27 09:46:08;;;;;;;5.27;4.77;;;;;;;21.14;74.44;99473.59;5073398;28;20419;-72
2021/09/27 09:48:36;;;;;;;5.23;4.10;;;;;;;21.44;72.90;99470.41;5073856;28;20423;-73
2021/09/27 09:54:04;;;;;;;5.40;4.57;;;;;;;21.87;70.33;99467.72;5151410;27;21005;-74
2021/09/27 09:56:34;;;;;;;5.97;4.13;;;;;;;22.59;67.17;99467.22;5151450;27;20519;-73
2021/09/27 09:59:14;;;;;;;6.43;4.73;;;;;;;22.85;66.22;99467.09;5151808;27;20780;-72
2021/09/27 10:01:41;;;;;;;7.00;4.20;;;;;;;22.78;66.06;99452.34;5152094;27;20862;-73
2021/09/27 10:04:11;;;;;;;6.63;4.33;;;;;;;22.39;67.44;99451.09;5151805;27;20427;-73
2021/09/27 10:06:44;;;;;;;5.90;5.30;;;;;;;22.54;67.03;99465.00;5151427;27;20442;-73
2021/09/27 10:09:18;;;;;;;7.43;3.80;;;;;;;22.37;66.04;99457.78;5152325;27;20446;-74
2021/09/27 10:11:53;;;;;;;6.10;4.77;;;;;;;22.21;66.46;99453.97;5151381;27;20473;-74
2021/09/27 10:14:22;;;;;;;15.20;6.50;;;;;;;22.01;67.64;99460.75;5151304;27;20429;-72
2021/09/27 10:16:52;;;;;;;4.47;3.60;;;;;;;22.07;67.56;99462.81;5151441;27;20768;-73
2021/09/27 10:19:25;;;;;;;6.40;4.80;;;;;;;22.34;67.25;99464.47;5151298;27;20423;-72
2021/09/27 10:21:55;;;;;;;3.83;3.53;;;;;;;22.12;67.57;99456.84;5151208;27;20439;-72
2021/09/27 10:24:32;;;;;;;5.80;5.40;;;;;;;22.16;68.19;99449.97;5151429;27;20503;-72
2021/09/27 10:27:01;;;;;;;5.13;3.87;;;;;;;22.34;67.27;99458.09;5151152;27;20522;-73
2021/09/27 10:29:30;;;;;;;9.27;4.53;;;;;;;22.57;67.03;99448.22;5151040;27;20442;-73
2021/09/27 10:31:59;;;;;;;8.37;4.40;;;;;;;22.47;66.57;99453.84;5150961;27;20423;-71
2021/09/27 10:34:30;;;;;;;5.37;4.10;;;;;;;22.31;67.33;99458.44;5151173;27;20523;-72
2021/09/27 10:37:07;;;;;;;5.63;4.90;;;;;;;22.57;66.86;99458.34;5150691;27;20527;-72
2021/09/27 10:39:35;;;;;;;5.83;4.23;;;;;;;22.30;67.50;99454.84;5150617;27;20519;-73
2021/09/27 10:42:05;;;;;;;7.30;4.00;;;;;;;22.01;68.29;99447.88;5151113;27;20786;-74
2021/09/27 10:44:40;;;;;;;4.23;3.83;;;;;;;21.91;68.79;99454.50;5151042;27;20412;-74
2021/09/27 10:47:11;;;;;;;4.20;3.80;;;;;;;21.87;69.29;99445.78;5150474;27;20445;-73
2021/09/27 10:49:43;;;;;;;5.50;4.07;;;;;;;21.74;69.71;99446.25;5150451;27;20420;-74
2021/09/27 10:52:26;;;;;;;5.90;4.23;;;;;;;21.70;68.24;99447.59;5150360;27;20491;-73
2021/09/27 10:55:00;;;;;;;5.33;4.93;;;;;;;21.76;69.00;99449.69;5150972;27;20420;-74
2021/09/27 10:57:40;;;;;;;5.40;4.90;;;;;;;21.73;68.74;99444.53;5150863;27;20418;-74
2021/09/27 11:00:18;;;;;;;7.10;5.00;;;;;;;21.80;68.14;99445.59;5150285;27;20418;-73
2021/09/27 11:02:50;;;;;;;5.60;4.43;;;;;;;21.78;66.58;99442.16;5150003;27;20420;-73
2021/09/27 11:05:30;;;;;;;5.00;4.50;;;;;;;22.01;65.25;99436.06;5136249;27;20427;-73
2021/09/27 11:08:07;;;;;;;4.33;3.80;;;;;;;21.93;64.86;99430.53;5135222;27;20428;-72
2021/09/27 11:10:43;;;;;;;4.37;3.97;;;;;;;21.76;66.31;99433.22;5135604;27;20438;-72
2021/09/27 11:13:16;;;;;;;6.67;5.30;;;;;;;22.20;64.80;99427.53;5135089;27;20468;-74
2021/09/27 11:15:54;;;;;;;6.00;4.63;;;;;;;22.55;63.19;99422.81;5135945;27;20447;-74
2021/09/27 11:18:27;;;;;;;5.83;4.50;;;;;;;22.95;61.65;99423.84;5135777;27;20519;-72
2021/09/27 11:21:17;;;;;;;4.53;4.13;;;;;;;23.46;59.77;99427.19;5135342;27;20424;-74
2021/09/27 11:23:44;;;;;;;5.33;3.67;;;;;;;23.30;58.23;99430.00;5135262;27;20762;-74
2021/09/27 11:26:39;;;;;;;5.17;3.50;;;;;;;23.21;58.43;99433.78;5135410;27;20436;-73
2021/09/27 11:29:45;;;;;;;5.37;4.97;;;;;;;23.72;57.55;99431.56;5135205;27;20431;-74
2021/09/27 11:32:19;;;;;;;4.50;4.10;;;;;;;23.83;57.21;99427.59;5135294;27;20463;-74
2021/09/27 11:34:55;;;;;;;4.50;4.10;;;;;;;23.98;56.35;99435.97;5135234;27;20821;-74
2021/09/27 11:37:26;;;;;;;4.70;4.03;;;;;;;23.91;56.58;99436.66;5135197;27;20479;-73
2021/09/27 11:40:08;;;;;;;4.07;3.67;;;;;;;24.16;55.21;99432.94;5135464;27;20432;-74
2021/09/27 11:42:51;;;;;;;3.40;3.10;;;;;;;23.66;56.96;99432.28;5135520;27;20438;-74
2021/09/27 11:45:40;;;;;;;3.83;3.17;;;;;;;23.02;57.53;99440.50;5135295;27;20436;-74
2021/09/27 11:48:12;;;;;;;4.43;4.03;;;;;;;23.02;58.25;99438.63;5135015;27;20443;-74
2021/09/27 11:51:02;;;;;;;4.10;3.70;;;;;;;23.06;58.09;99437.22;5134950;27;20432;-74
2021/09/27 11:53:41;;;;;;;3.63;3.30;;;;;;;23.07;57.92;99433.47;5134072;27;20530;-75
2021/09/27 11:56:13;;;;;;;9.20;4.87;;;;;;;23.25;57.73;99426.94;5135290;27;20431;-74